Eshbach, Pennsylvania
Current Conditions -  °F | °C
As of 7:54 PM on Saturday 22 Nov 2014 (Local Time) from KPTW Reporting Station
Overcast Overcast  
Wind Chill: 40°   Ceiling: 7000
Heat Index: 40°   Visibility: 10mi
Dew Point: 20°   Wind: 3mph
Humidity: 45%   Direction: 210°SSW
Pressure: 30.28"   Gusts: NA
Location:  40.3927°N, 75.6313°W
Report Text: KPTW 230054Z AUTO 21003KT 10SM OVC070 04/M07 A3028 RMK AO2 SLP254 T00441067
Loading
Personal Weather Stations






























Interactive Weather Map New forecast layout! Learn more

10-Day Weather Forecast

Advertisements
Track Severe Weather on mobile